createdAt,value
2018-06-24T00:01:58.967Z,4.50
2018-06-24T00:06:33.490Z,4.50
2018-06-24T00:11:08.053Z,4.30
2018-06-24T00:15:42.366Z,3.97
2018-06-24T00:20:16.963Z,3.97
2018-06-24T00:24:51.288Z,4.20
2018-06-24T00:29:25.865Z,4.20
2018-06-24T00:34:00.286Z,4.10
2018-06-24T00:38:34.732Z,5.20
2018-06-24T00:43:09.177Z,4.17
2018-06-24T00:47:43.894Z,3.97
2018-06-24T00:52:18.257Z,4.23
2018-06-24T00:56:52.770Z,4.10
2018-06-24T01:01:27.137Z,4.80
2018-06-24T01:06:01.577Z,4.43
2018-06-24T01:10:36.225Z,4.10
2018-06-24T01:15:11.118Z,4.57
2018-06-24T01:19:45.490Z,4.93
2018-06-24T01:24:20.017Z,4.53
2018-06-24T01:28:54.362Z,4.87
2018-06-24T01:33:29.555Z,5.60
2018-06-24T01:38:03.990Z,4.70
2018-06-24T01:42:38.529Z,4.80
2018-06-24T01:47:13.692Z,4.40
2018-06-24T01:51:48.273Z,4.80
2018-06-24T01:56:22.817Z,5.13
2018-06-24T02:00:57.409Z,5.20
2018-06-24T02:05:31.643Z,5.17
2018-06-24T02:10:06.197Z,6.20
2018-06-24T02:14:40.470Z,6.40
2018-06-24T02:19:15.185Z,5.93
2018-06-24T02:23:49.534Z,5.20
2018-06-24T02:28:24.061Z,5.13
2018-06-24T02:32:58.473Z,5.07
2018-06-24T02:37:32.801Z,5.47
2018-06-24T02:42:07.194Z,5.30
2018-06-24T02:46:41.710Z,5.20
2018-06-24T02:51:15.956Z,4.37
2018-06-24T02:55:50.428Z,4.23
2018-06-24T03:00:24.696Z,4.50
2018-06-24T03:04:59.529Z,4.27
2018-06-24T03:09:33.966Z,4.90
2018-06-24T03:14:08.554Z,4.70
2018-06-24T03:18:42.955Z,5.03
2018-06-24T03:23:17.277Z,5.20
2018-06-24T03:27:51.509Z,4.67
2018-06-24T03:32:25.941Z,5.10
2018-06-24T03:37:01.426Z,4.77
2018-06-24T03:41:35.830Z,4.90
2018-06-24T03:46:10.361Z,4.50
2018-06-24T03:50:44.703Z,4.83
2018-06-24T03:55:19.284Z,5.33
2018-06-24T03:59:53.861Z,5.23
2018-06-24T04:04:28.442Z,5.53
2018-06-24T04:09:02.797Z,5.30
2018-06-24T04:13:37.449Z,4.87
2018-06-24T04:18:11.897Z,4.93
2018-06-24T04:22:46.446Z,5.07
2018-06-24T04:27:20.929Z,4.87
2018-06-24T04:31:55.265Z,5.07
2018-06-24T04:36:29.888Z,5.30
2018-06-24T04:41:04.330Z,5.30
2018-06-24T04:45:38.810Z,4.77
2018-06-24T04:50:13.433Z,5.30
2018-06-24T04:54:47.812Z,5.20
2018-06-24T04:59:22.281Z,5.67
2018-06-24T05:03:56.730Z,6.13
2018-06-24T05:08:31.434Z,6.00
2018-06-24T05:13:06.205Z,5.90
2018-06-24T05:17:40.483Z,6.35
2018-06-24T05:22:15.129Z,6.87
2018-06-24T05:26:49.313Z,7.20
2018-06-24T05:31:23.777Z,10.50
2018-06-24T05:35:58.905Z,7.92
2018-06-24T05:40:33.278Z,7.97
2018-06-24T05:45:07.559Z,7.50
2018-06-24T05:49:41.864Z,8.00
2018-06-24T05:54:16.317Z,8.68
2018-06-24T05:58:50.960Z,7.90
2018-06-24T06:03:25.517Z,7.47
2018-06-24T06:08:00.034Z,7.95
2018-06-24T06:12:34.955Z,7.72
2018-06-24T06:17:09.273Z,8.30
2018-06-24T06:21:43.731Z,8.55
2018-06-24T06:26:18.205Z,8.60
2018-06-24T06:30:52.535Z,9.63
2018-06-24T06:35:26.881Z,10.00
2018-06-24T06:40:01.313Z,11.35
2018-06-24T06:44:35.785Z,9.95
2018-06-24T06:49:10.254Z,9.95
2018-06-24T06:53:44.577Z,11.35
2018-06-24T06:58:18.914Z,11.12
2018-06-24T07:02:53.489Z,11.00
2018-06-24T07:07:28.029Z,11.10
2018-06-24T07:12:03.457Z,11.65
2018-06-24T07:16:37.914Z,11.78
2018-06-24T07:21:12.850Z,6.20
2018-06-24T07:25:47.278Z,8.90
2018-06-24T07:30:21.892Z,9.68
2018-06-24T07:34:55.957Z,10.03
2018-06-24T07:39:30.397Z,9.55
2018-06-24T07:44:05.349Z,8.48
2018-06-24T07:48:39.986Z,8.78
2018-06-24T07:53:15.309Z,7.55
2018-06-24T07:57:49.780Z,7.30
2018-06-24T08:02:24.237Z,7.10
2018-06-24T08:06:59.329Z,5.90
2018-06-24T08:11:33.694Z,8.53
2018-06-24T08:16:08.217Z,5.28
2018-06-24T08:20:42.865Z,5.10
2018-06-24T08:25:17.229Z,5.12
2018-06-24T08:29:52.349Z,5.70
2018-06-24T08:34:26.637Z,5.10
2018-06-24T08:39:01.493Z,5.37
2018-06-24T08:43:36.054Z,4.58
2018-06-24T08:48:10.626Z,4.92
2018-06-24T08:52:45.271Z,6.45
2018-06-24T08:57:19.721Z,4.67
2018-06-24T09:01:54.270Z,4.47
2018-06-24T09:06:28.721Z,5.03
2018-06-24T09:11:03.178Z,5.70
2018-06-24T09:15:38.018Z,5.42
2018-06-24T09:20:12.761Z,5.40
2018-06-24T09:24:47.017Z,4.72
2018-06-24T09:29:21.426Z,4.50
2018-06-24T09:33:56.044Z,4.53
2018-06-24T09:38:31.089Z,4.70
2018-06-24T09:43:06.143Z,4.70
2018-06-24T09:47:40.737Z,4.72
2018-06-24T09:52:15.110Z,3.75
2018-06-24T09:56:49.365Z,4.10
2018-06-24T10:01:23.741Z,3.83
2018-06-24T10:05:58.181Z,3.50
2018-06-24T10:10:33.473Z,3.50
2018-06-24T10:15:08.586Z,3.90
2018-06-24T10:19:43.005Z,3.67
2018-06-24T10:24:17.338Z,3.05
2018-06-24T10:28:52.101Z,2.77
2018-06-24T10:33:26.589Z,2.80
2018-06-24T10:38:01.092Z,2.98
2018-06-24T10:42:35.651Z,2.95
2018-06-24T10:47:10.282Z,3.60
2018-06-24T10:51:45.470Z,3.12
2018-06-24T10:56:20.308Z,3.10
2018-06-24T11:00:54.817Z,3.70
2018-06-24T11:05:29.861Z,3.58
2018-06-24T11:10:05.300Z,4.35
2018-06-24T11:14:39.273Z,3.95
2018-06-24T11:19:13.681Z,4.33
2018-06-24T11:23:48.771Z,4.50
2018-06-24T11:28:23.141Z,3.70
2018-06-24T11:32:57.788Z,4.53
2018-06-24T11:37:32.078Z,4.10
2018-06-24T11:42:06.537Z,4.08
2018-06-24T11:46:40.905Z,4.50
2018-06-24T11:51:15.470Z,4.75
2018-06-24T11:55:49.849Z,4.22
2018-06-24T12:00:24.587Z,3.52
2018-06-24T12:04:58.958Z,3.50
2018-06-24T12:09:33.307Z,4.25
2018-06-24T12:14:07.223Z,4.22
2018-06-24T12:18:41.702Z,3.60
2018-06-24T12:23:16.054Z,2.90
2018-06-24T12:27:50.408Z,3.42
2018-06-24T12:32:24.872Z,3.08
2018-06-24T12:36:59.269Z,3.15
2018-06-24T12:41:33.749Z,3.45
2018-06-24T12:46:08.979Z,3.25
2018-06-24T12:50:43.785Z,3.20
2018-06-24T12:55:23.014Z,3.00
2018-06-24T12:59:59.077Z,2.85
2018-06-24T13:04:32.965Z,2.95
2018-06-24T13:09:08.924Z,2.98
2018-06-24T13:13:45.533Z,2.47
2018-06-24T13:18:19.916Z,2.37
2018-06-24T13:22:54.261Z,2.80
2018-06-24T13:27:28.873Z,2.80
2018-06-24T13:32:03.368Z,3.00
2018-06-24T13:36:37.758Z,3.50
2018-06-24T13:41:12.016Z,2.58
2018-06-24T13:45:47.421Z,2.85
2018-06-24T13:50:23.038Z,2.60
2018-06-24T13:54:57.261Z,3.92
2018-06-24T13:59:31.813Z,2.50
2018-06-24T14:04:07.184Z,2.30
2018-06-24T14:08:41.520Z,2.80
2018-06-24T14:13:16.063Z,2.90
2018-06-24T14:17:51.125Z,2.80
2018-06-24T14:22:25.509Z,2.15
2018-06-24T14:27:00.022Z,2.00
2018-06-24T14:31:34.240Z,2.35
2018-06-24T14:36:09.203Z,2.55
2018-06-24T14:40:43.723Z,2.17
2018-06-24T14:45:18.274Z,1.92
2018-06-24T14:49:53.004Z,2.27
2018-06-24T14:54:27.578Z,2.30
2018-06-24T14:59:02.728Z,2.98
2018-06-24T15:03:37.139Z,2.60
2018-06-24T15:08:11.789Z,2.58
2018-06-24T15:12:46.789Z,3.70
2018-06-24T15:17:20.805Z,3.20
2018-06-24T15:21:55.281Z,3.05
2018-06-24T15:26:29.805Z,3.00
2018-06-24T15:31:04.198Z,2.67
2018-06-24T15:35:38.622Z,2.83
2018-06-24T15:40:12.883Z,3.27
2018-06-24T15:44:47.530Z,5.40
2018-06-24T15:49:21.529Z,2.62
2018-06-24T15:53:56.463Z,2.20
2018-06-24T15:58:30.786Z,3.02
2018-06-24T16:03:06.122Z,2.60
2018-06-24T16:07:40.583Z,2.58
2018-06-24T16:12:15.291Z,2.27
2018-06-24T16:16:50.893Z,2.42
2018-06-24T16:21:25.396Z,2.72
2018-06-24T16:25:59.978Z,3.10
2018-06-24T16:30:34.579Z,2.77
2018-06-24T16:35:08.926Z,2.62
2018-06-24T16:39:43.284Z,2.87
2018-06-24T16:44:18.142Z,2.20
2018-06-24T16:48:52.455Z,2.40
2018-06-24T16:53:27.141Z,2.87
2018-06-24T16:58:01.624Z,2.50
2018-06-24T17:02:35.811Z,2.95
2018-06-24T17:07:17.423Z,2.95
2018-06-24T17:11:51.894Z,2.83
2018-06-24T17:16:26.623Z,3.00
2018-06-24T17:21:01.910Z,2.80
2018-06-24T17:25:36.277Z,2.40
2018-06-24T17:30:10.789Z,2.30
2018-06-24T17:34:46.022Z,2.98
2018-06-24T17:39:21.139Z,2.60
2018-06-24T17:43:55.680Z,2.60
2018-06-24T17:48:31.078Z,2.90
2018-06-24T17:53:05.786Z,3.80
2018-06-24T17:57:40.672Z,8.43
2018-06-24T18:02:15.576Z,3.80
2018-06-24T18:06:49.926Z,3.60
2018-06-24T18:11:24.490Z,3.40
2018-06-24T18:15:59.113Z,4.20
2018-06-24T18:20:33.669Z,3.70
2018-06-24T18:25:09.118Z,3.70
2018-06-24T18:29:44.474Z,5.67
2018-06-24T18:34:19.388Z,3.90
2018-06-24T18:38:53.765Z,3.83
2018-06-24T18:43:28.742Z,3.90
2018-06-24T18:48:03.106Z,4.25
2018-06-24T18:52:37.355Z,4.10
2018-06-24T18:57:12.585Z,4.00
2018-06-24T19:01:46.942Z,4.12
2018-06-24T19:06:21.681Z,4.40
2018-06-24T19:10:56.689Z,5.75
2018-06-24T19:15:33.572Z,4.35
2018-06-24T19:20:08.306Z,4.45
2018-06-24T19:24:42.976Z,4.53
2018-06-24T19:29:17.623Z,4.70
2018-06-24T19:33:52.334Z,4.78
2018-06-24T19:38:27.287Z,4.22
2018-06-24T19:43:03.018Z,4.70
2018-06-24T19:47:37.457Z,4.42
2018-06-24T19:52:11.789Z,4.60
2018-06-24T19:56:46.419Z,4.15
2018-06-24T20:01:21.486Z,3.80
2018-06-24T20:05:56.569Z,4.08
2018-06-24T20:10:33.109Z,3.80
2018-06-24T20:15:07.841Z,3.83
2018-06-24T20:19:43.108Z,3.72
2018-06-24T20:24:17.776Z,3.60
2018-06-24T20:28:56.391Z,3.50
2018-06-24T20:33:32.390Z,3.62
2018-06-24T20:38:07.362Z,3.80
2018-06-24T20:42:43.055Z,3.55
2018-06-24T20:47:17.900Z,3.17
2018-06-24T20:51:52.457Z,3.10
2018-06-24T20:56:27.505Z,3.15
2018-06-24T21:01:02.964Z,2.98
2018-06-24T21:05:38.186Z,3.30
2018-06-24T21:10:13.738Z,2.77
2018-06-24T21:14:48.897Z,3.02
2018-06-24T21:19:23.433Z,3.30
2018-06-24T21:23:58.081Z,3.10
2018-06-24T21:28:32.474Z,3.37
2018-06-24T21:33:07.427Z,2.75
2018-06-24T21:37:42.207Z,3.15
2018-06-24T21:42:16.852Z,3.27
2018-06-24T21:46:51.710Z,3.47
2018-06-24T21:51:26.129Z,3.17
2018-06-24T21:56:00.673Z,3.58
2018-06-24T22:00:35.182Z,3.70
2018-06-24T22:05:09.899Z,3.20
2018-06-24T22:09:44.215Z,3.40
2018-06-24T22:14:18.802Z,3.67
2018-06-24T22:18:53.244Z,3.62
2018-06-24T22:23:28.342Z,3.80
2018-06-24T22:28:03.170Z,3.30
2018-06-24T22:32:39.282Z,3.55
2018-06-24T22:37:13.804Z,3.70
2018-06-24T22:41:47.789Z,3.80
2018-06-24T22:46:23.178Z,3.62
2018-06-24T22:50:57.590Z,3.47
2018-06-24T22:55:32.210Z,3.42
2018-06-24T23:00:11.849Z,3.77
2018-06-24T23:04:46.354Z,3.40
2018-06-24T23:09:20.551Z,4.00
2018-06-24T23:13:54.994Z,3.30
2018-06-24T23:18:29.514Z,3.52
2018-06-24T23:23:03.726Z,3.27
2018-06-24T23:27:38.166Z,3.60
2018-06-24T23:32:12.600Z,3.25
2018-06-24T23:36:47.005Z,3.40
2018-06-24T23:41:21.510Z,3.50
2018-06-24T23:45:55.854Z,3.60
2018-06-24T23:50:30.505Z,3.52
2018-06-24T23:55:05.146Z,3.30
2018-06-24T23:59:39.832Z,3.37
